Time;durP1;ratioP1;P1;durP2;ratioP2;P2;SDS_P1;SDS_P2;PMS_P1;PMS_P2;Temp;Humidity;BMP_temperature;BMP_pressure;BME280_temperature;BME280_humidity;BME280_pressure;Samples;Min_cycle;Max_cycle;Signal;HPM_P1;HPM_P2
2021/12/28 00:01:46;;;;;;;46.47;21.53;;;4.10;99.90;;;;;;5092508;28;20048;-67
2021/12/28 00:04:13;;;;;;;51.20;20.53;;;4.20;99.90;;;;;;5091312;28;20052;-67
2021/12/28 00:06:41;;;;;;;51.03;21.33;;;4.10;99.90;;;;;;5091077;28;20079;-67
2021/12/28 00:09:09;;;;;;;47.83;20.73;;;4.10;99.90;;;;;;5091417;28;20087;-66
2021/12/28 00:11:36;;;;;;;45.00;21.33;;;4.10;99.90;;;;;;5091424;28;20095;-68
2021/12/28 00:14:04;;;;;;;50.40;21.97;;;4.20;99.90;;;;;;5091525;28;20080;-68
2021/12/28 00:17:58;;;;;;;50.43;22.47;;;4.20;99.90;;;;;;5090680;28;20499;-68
2021/12/28 00:19:21;;;;;;;51.13;20.23;;;4.10;99.90;;;;;;5090216;28;20052;-67
2021/12/28 00:21:50;;;;;;;44.33;20.10;;;4.10;99.90;;;;;;5091138;28;20094;-67
2021/12/28 00:24:17;;;;;;;45.63;19.90;;;4.20;99.90;;;;;;5091479;28;20156;-68
2021/12/28 00:26:45;;;;;;;48.40;19.50;;;4.20;99.90;;;;;;5090671;28;20132;-67
2021/12/28 00:29:12;;;;;;;42.53;19.53;;;4.10;99.90;;;;;;5091274;28;20097;-67
2021/12/28 00:31:39;;;;;;;50.17;21.60;;;4.10;99.90;;;;;;5090835;28;20076;-67
2021/12/28 00:34:06;;;;;;;48.93;21.27;;;4.10;99.90;;;;;;5091232;28;20111;-66
2021/12/28 00:36:33;;;;;;;47.43;21.40;;;4.10;99.90;;;;;;5090962;28;20508;-68
2021/12/28 00:39:01;;;;;;;50.47;21.70;;;4.10;99.90;;;;;;5091069;28;20044;-65
2021/12/28 00:41:29;;;;;;;50.20;22.60;;;4.10;99.90;;;;;;5090884;28;20060;-67
2021/12/28 00:43:56;;;;;;;49.07;21.07;;;4.20;99.90;;;;;;5091337;28;20110;-67
2021/12/28 00:46:23;;;;;;;43.90;20.47;;;4.20;99.90;;;;;;5090754;28;20089;-67
2021/12/28 00:48:49;;;;;;;52.77;21.23;;;4.20;99.90;;;;;;5091402;28;20174;-67
2021/12/28 00:51:17;;;;;;;52.73;21.80;;;4.30;99.90;;;;;;5090780;28;20444;-66
2021/12/28 00:53:44;;;;;;;50.33;22.40;;;4.30;99.90;;;;;;5091106;28;20066;-66
2021/12/28 00:56:12;;;;;;;47.20;20.60;;;4.30;99.90;;;;;;5090193;28;20091;-65
2021/12/28 00:58:39;;;;;;;53.00;22.00;;;4.30;99.90;;;;;;5090936;28;20084;-67
2021/12/28 01:01:07;;;;;;;49.10;22.17;;;4.40;99.90;;;;;;5090633;28;20472;-66
2021/12/28 01:03:37;;;;;;;53.77;21.67;;;4.40;99.90;;;;;;5090829;28;20131;-66
2021/12/28 01:06:05;;;;;;;51.47;22.20;;;4.40;99.90;;;;;;5090411;28;20083;-67
2021/12/28 01:08:32;;;;;;;50.13;22.50;;;4.40;99.90;;;;;;5090772;28;20088;-66
2021/12/28 01:10:59;;;;;;;48.80;21.90;;;4.40;99.90;;;;;;5090588;28;20556;-67
2021/12/28 01:13:28;;;;;;;59.17;23.83;;;4.40;99.90;;;;;;5090770;28;20094;-67
2021/12/28 01:15:55;;;;;;;53.28;23.02;;;4.40;99.90;;;;;;5090206;28;20086;-67
2021/12/28 01:18:25;;;;;;;52.73;22.83;;;4.40;99.90;;;;;;5090608;28;20087;-66
2021/12/28 01:20:52;;;;;;;46.00;21.43;;;4.50;99.90;;;;;;5090357;28;20048;-66
2021/12/28 01:23:20;;;;;;;51.40;23.27;;;4.50;99.90;;;;;;5090641;28;20048;-67
2021/12/28 01:25:46;;;;;;;54.63;23.00;;;4.50;99.90;;;;;;5090156;28;20090;-66
2021/12/28 01:28:14;;;;;;;50.47;23.13;;;4.50;99.90;;;;;;5091179;28;20051;-66
2021/12/28 01:30:42;;;;;;;52.07;22.07;;;4.50;99.90;;;;;;5091738;28;20525;-66
2021/12/28 01:33:10;;;;;;;49.87;21.40;;;4.60;99.90;;;;;;5094333;28;20074;-66
2021/12/28 01:35:38;;;;;;;54.83;24.50;;;4.60;99.90;;;;;;5093557;28;20200;-66
2021/12/28 01:38:05;;;;;;;59.23;23.93;;;4.60;99.90;;;;;;5094408;28;20087;-66
2021/12/28 01:40:35;;;;;;;58.77;24.27;;;4.60;99.90;;;;;;5094132;28;20087;-66
2021/12/28 01:43:08;;;;;;;59.87;24.80;;;4.60;99.90;;;;;;5094079;28;20521;-66
2021/12/28 01:45:41;;;;;;;56.33;22.87;;;4.60;99.90;;;;;;5093651;28;20450;-66
2021/12/28 01:48:12;;;;;;;62.70;25.97;;;4.50;99.90;;;;;;5093864;28;20129;-66
2021/12/28 01:50:39;;;;;;;60.23;25.23;;;4.60;99.90;;;;;;5107085;22;20048;-69
2021/12/28 01:53:07;;;;;;;63.63;26.03;;;4.60;99.90;;;;;;5094054;28;20130;-69
2021/12/28 01:55:37;;;;;;;62.20;26.53;;;4.60;99.90;;;;;;5093369;28;20083;-69
2021/12/28 01:58:04;;;;;;;62.87;25.43;;;4.60;99.90;;;;;;5093678;28;20220;-69
2021/12/28 02:00:32;;;;;;;58.13;25.80;;;4.60;99.90;;;;;;5093509;28;20087;-69
2021/12/28 02:02:59;;;;;;;60.77;25.53;;;4.60;99.90;;;;;;5093602;28;20135;-69
2021/12/28 02:05:27;;;;;;;64.47;25.80;;;4.70;99.90;;;;;;5093209;28;20055;-69
2021/12/28 02:07:54;;;;;;;66.70;27.33;;;4.60;99.90;;;;;;5093638;28;20048;-69
2021/12/28 02:10:21;;;;;;;60.87;25.37;;;4.70;99.90;;;;;;5093194;28;20075;-69
2021/12/28 02:12:48;;;;;;;61.33;24.80;;;4.70;99.90;;;;;;5093144;28;20087;-69
2021/12/28 02:15:16;;;;;;;65.43;25.60;;;4.70;99.90;;;;;;5092751;28;20508;-69
2021/12/28 02:17:43;;;;;;;62.67;26.83;;;4.70;99.90;;;;;;5093089;28;20169;-69
2021/12/28 02:20:14;;;;;;;58.30;25.77;;;4.70;99.90;;;;;;5093138;28;20084;-69
2021/12/28 02:22:42;;;;;;;65.63;24.63;;;4.70;99.90;;;;;;5092895;28;20080;-69
2021/12/28 02:25:12;;;;;;;62.15;26.13;;;4.70;99.90;;;;;;5092689;28;20478;-69
2021/12/28 02:27:40;;;;;;;59.67;25.35;;;4.70;99.90;;;;;;5092984;28;20465;-69
2021/12/28 02:30:10;;;;;;;64.82;26.88;;;4.70;99.90;;;;;;5093046;28;20151;-69
2021/12/28 02:32:39;;;;;;;68.93;26.83;;;4.70;99.90;;;;;;5093088;28;20048;-69
2021/12/28 02:35:08;;;;;;;62.72;25.13;;;4.70;99.90;;;;;;5092547;28;20044;-69
2021/12/28 02:37:36;;;;;;;61.75;26.35;;;4.70;99.90;;;;;;5092824;28;20087;-69
2021/12/28 02:40:05;;;;;;;53.40;24.42;;;4.70;99.90;;;;;;5092810;28;20084;-69
2021/12/28 02:42:32;;;;;;;69.85;26.27;;;4.70;99.90;;;;;;5091767;28;20207;-69
2021/12/28 02:45:02;;;;;;;62.70;25.45;;;4.70;99.90;;;;;;5092161;28;20094;-69
2021/12/28 02:47:32;;;;;;;61.55;25.30;;;4.80;99.90;;;;;;5092835;28;20134;-69
2021/12/28 02:49:59;;;;;;;59.28;25.48;;;4.80;99.90;;;;;;5092292;28;20052;-69
2021/12/28 02:52:26;;;;;;;51.47;24.05;;;4.80;99.90;;;;;;5092577;28;20075;-69
2021/12/28 02:54:54;;;;;;;54.72;24.35;;;4.80;99.90;;;;;;5092195;28;20578;-69
2021/12/28 02:57:21;;;;;;;60.33;25.95;;;4.70;99.90;;;;;;5092490;28;20079;-69
2021/12/28 02:59:50;;;;;;;62.45;24.33;;;4.70;99.90;;;;;;5092368;28;20087;-69
2021/12/28 03:02:18;;;;;;;58.58;22.88;;;4.70;99.90;;;;;;5092035;28;20102;-69
2021/12/28 03:04:46;;;;;;;61.05;24.80;;;4.70;99.90;;;;;;5092148;28;20056;-69
2021/12/28 03:07:13;;;;;;;61.20;24.58;;;4.80;99.90;;;;;;5092428;28;20469;-69
2021/12/28 03:09:40;;;;;;;63.40;25.50;;;4.80;99.90;;;;;;5092369;28;20135;-69
2021/12/28 03:12:10;;;;;;;59.22;23.77;;;4.80;99.90;;;;;;5091909;28;20055;-69
2021/12/28 03:14:37;;;;;;;58.17;24.85;;;4.80;99.90;;;;;;5092062;28;20044;-69
2021/12/28 03:17:06;;;;;;;61.55;25.80;;;4.80;99.90;;;;;;5091482;28;20563;-69
2021/12/28 03:19:33;;;;;;;55.55;23.73;;;4.80;99.90;;;;;;5092044;28;20501;-69
2021/12/28 03:22:00;;;;;;;55.53;23.63;;;4.80;99.90;;;;;;5091990;28;20063;-69
2021/12/28 03:24:27;;;;;;;54.10;23.00;;;4.80;99.90;;;;;;5091929;28;20131;-69
2021/12/28 03:26:54;;;;;;;57.63;23.50;;;4.80;99.90;;;;;;5091354;28;20052;-69
2021/12/28 03:29:23;;;;;;;62.55;23.58;;;4.80;99.90;;;;;;5091778;28;20091;-69
2021/12/28 03:31:50;;;;;;;59.88;24.05;;;4.80;99.90;;;;;;5091535;28;20100;-69
2021/12/28 03:34:17;;;;;;;64.82;24.13;;;4.70;99.90;;;;;;5092129;28;20132;-69
2021/12/28 03:36:44;;;;;;;56.65;22.90;;;4.80;99.90;;;;;;5091329;28;20085;-69
2021/12/28 03:39:11;;;;;;;55.15;23.63;;;4.80;99.90;;;;;;5091612;28;20135;-69
2021/12/28 03:41:39;;;;;;;52.00;21.40;;;4.90;99.90;;;;;;5091532;28;20105;-69
2021/12/28 03:44:07;;;;;;;53.97;22.75;;;4.90;99.90;;;;;;5091884;28;20410;-69
2021/12/28 03:46:36;;;;;;;60.47;23.80;;;5.00;99.90;;;;;;5091344;28;20495;-69
2021/12/28 03:49:03;;;;;;;55.85;22.27;;;5.00;99.90;;;;;;5091637;28;20091;-69
2021/12/28 03:51:31;;;;;;;56.00;23.25;;;5.10;99.90;;;;;;5092010;28;20097;-69
2021/12/28 03:53:58;;;;;;;57.25;22.80;;;5.10;99.90;;;;;;5092329;28;20572;-69
2021/12/28 03:56:25;;;;;;;52.17;21.95;;;5.00;99.90;;;;;;5092563;28;20048;-69
2021/12/28 03:58:52;;;;;;;47.28;21.75;;;5.10;99.90;;;;;;5092104;28;20048;-69
2021/12/28 04:01:23;;;;;;;49.53;21.15;;;5.10;99.90;;;;;;5092329;28;20084;-69
2021/12/28 04:03:51;;;;;;;54.10;23.45;;;5.10;99.90;;;;;;5092655;28;20048;-69
2021/12/28 04:06:20;;;;;;;52.78;21.55;;;5.10;99.90;;;;;;5092051;28;20079;-69
2021/12/28 04:08:47;;;;;;;45.10;20.70;;;5.10;99.90;;;;;;5092906;28;20052;-69
2021/12/28 04:11:26;;;;;;;43.83;21.70;;;5.10;99.90;;;;;;5092505;28;20457;-69
2021/12/28 04:13:56;;;;;;;51.22;21.30;;;5.00;99.90;;;;;;5093576;28;20052;-69
2021/12/28 04:16:23;;;;;;;48.22;20.17;;;5.00;99.90;;;;;;5092012;28;20872;-69
2021/12/28 04:18:52;;;;;;;47.53;20.35;;;4.90;99.90;;;;;;5090930;28;20048;-69
2021/12/28 04:21:19;;;;;;;44.20;20.13;;;4.90;99.90;;;;;;5090929;28;20181;-69
2021/12/28 04:23:47;;;;;;;50.58;20.58;;;5.00;99.90;;;;;;5091016;28;20135;-69
2021/12/28 04:26:15;;;;;;;51.17;22.63;;;5.00;99.90;;;;;;5090777;28;20123;-69
2021/12/28 04:28:43;;;;;;;50.65;22.02;;;5.00;99.90;;;;;;5090875;28;20535;-69
2021/12/28 04:31:10;;;;;;;52.85;21.33;;;5.10;99.90;;;;;;5090843;28;20139;-69
2021/12/28 04:33:38;;;;;;;45.88;21.13;;;5.00;99.90;;;;;;5090760;28;20083;-69
2021/12/28 04:36:12;;;;;;;47.60;20.35;;;5.00;99.90;;;;;;5090326;28;20135;-69
2021/12/28 04:38:41;;;;;;;41.90;19.65;;;5.10;99.90;;;;;;5091047;28;20360;-69
2021/12/28 04:41:09;;;;;;;42.93;20.70;;;5.10;99.90;;;;;;5090574;28;20044;-69
2021/12/28 04:43:36;;;;;;;39.55;18.75;;;5.20;99.90;;;;;;5090887;28;20127;-69
2021/12/28 04:46:03;;;;;;;42.13;19.48;;;5.20;99.90;;;;;;5090588;28;20083;-69
2021/12/28 04:48:30;;;;;;;44.33;19.85;;;5.20;99.90;;;;;;5090705;28;20117;-69
2021/12/28 04:50:57;;;;;;;46.60;20.60;;;5.20;99.90;;;;;;5090537;28;20594;-69
2021/12/28 04:53:26;;;;;;;42.58;21.55;;;5.30;99.90;;;;;;5090895;28;20525;-69
2021/12/28 04:55:53;;;;;;;40.15;18.83;;;5.30;99.90;;;;;;5090744;28;20197;-69
2021/12/28 04:58:20;;;;;;;39.45;20.02;;;5.20;99.90;;;;;;5090974;28;20080;-69
2021/12/28 05:00:49;;;;;;;44.92;21.60;;;5.20;99.90;;;;;;5090478;28;20048;-69
2021/12/28 05:03:16;;;;;;;44.95;20.98;;;5.30;99.90;;;;;;5090270;28;20462;-69
2021/12/28 05:05:48;;;;;;;42.35;19.25;;;5.30;99.90;;;;;;5091708;28;20114;-69
2021/12/28 05:08:15;;;;;;;41.40;20.65;;;5.30;99.90;;;;;;5094481;28;20105;-69
2021/12/28 05:10:44;;;;;;;44.80;20.00;;;5.20;99.90;;;;;;5094424;28;20052;-69
2021/12/28 05:13:12;;;;;;;47.22;20.38;;;5.20;99.90;;;;;;5094370;28;20048;-69
2021/12/28 05:15:42;;;;;;;49.20;21.55;;;5.20;99.90;;;;;;5094761;28;20080;-69
2021/12/28 05:18:09;;;;;;;41.78;19.33;;;5.20;99.90;;;;;;5094299;28;20139;-69
2021/12/28 05:20:37;;;;;;;40.17;20.42;;;5.20;99.90;;;;;;5094257;28;20051;-70
2021/12/28 05:23:04;;;;;;;40.67;20.13;;;5.20;99.90;;;;;;5093902;28;20484;-69
2021/12/28 05:25:32;;;;;;;40.40;18.83;;;5.20;99.90;;;;;;5093864;28;20084;-69
2021/12/28 05:28:00;;;;;;;49.90;21.52;;;5.20;99.90;;;;;;5094156;28;20068;-69
2021/12/28 05:30:28;;;;;;;46.75;19.92;;;5.20;99.90;;;;;;5093944;28;20101;-69
2021/12/28 05:32:55;;;;;;;42.60;18.60;;;5.20;99.90;;;;;;5093832;28;20091;-69
2021/12/28 05:35:22;;;;;;;44.42;17.48;;;5.20;99.90;;;;;;5093651;28;20052;-69
2021/12/28 05:37:50;;;;;;;45.50;19.95;;;5.20;99.90;;;;;;5093788;28;20091;-69
2021/12/28 05:40:17;;;;;;;43.95;19.38;;;5.20;99.90;;;;;;5094044;28;20044;-69
2021/12/28 05:42:44;;;;;;;40.38;18.90;;;5.20;99.90;;;;;;5093877;28;20096;-69
2021/12/28 05:45:13;;;;;;;48.45;19.73;;;5.20;99.90;;;;;;5093380;28;20325;-69
2021/12/28 05:47:41;;;;;;;48.22;18.98;;;5.30;99.90;;;;;;5094029;28;20131;-69
2021/12/28 05:50:10;;;;;;;43.92;19.63;;;5.20;99.90;;;;;;5093646;28;20133;-69
2021/12/28 05:52:37;;;;;;;46.40;20.60;;;5.20;99.90;;;;;;5093768;28;20087;-69
2021/12/28 05:55:05;;;;;;;41.92;19.63;;;5.20;99.90;;;;;;5092902;28;20098;-69
2021/12/28 05:57:32;;;;;;;47.35;20.33;;;5.30;99.90;;;;;;5093962;28;20560;-69
2021/12/28 05:59:59;;;;;;;53.22;20.48;;;5.20;99.90;;;;;;5093570;28;20525;-69
2021/12/28 06:02:28;;;;;;;46.63;19.60;;;5.20;99.90;;;;;;5093452;28;20044;-69
2021/12/28 06:04:54;;;;;;;45.38;19.65;;;5.20;99.90;;;;;;5093170;28;20414;-69
2021/12/28 06:07:27;;;;;;;43.38;18.65;;;5.20;99.90;;;;;;5093853;28;20083;-69
2021/12/28 06:09:55;;;;;;;44.28;19.55;;;5.20;99.90;;;;;;5093409;28;20135;-69
2021/12/28 06:12:22;;;;;;;44.50;19.17;;;5.20;99.90;;;;;;5093374;28;20075;-69
2021/12/28 06:14:49;;;;;;;48.83;20.38;;;5.30;99.90;;;;;;5093095;28;20080;-69
2021/12/28 06:17:15;;;;;;;45.22;19.60;;;5.20;99.90;;;;;;5093231;28;20426;-69
2021/12/28 06:19:44;;;;;;;45.08;19.80;;;5.20;99.90;;;;;;5093105;28;20572;-69
2021/12/28 06:22:11;;;;;;;49.47;19.00;;;5.20;99.90;;;;;;5093057;28;20492;-69
2021/12/28 06:24:38;;;;;;;46.08;18.92;;;5.20;99.90;;;;;;5092946;28;20109;-69
2021/12/28 06:27:06;;;;;;;52.25;19.10;;;5.20;99.90;;;;;;5093156;28;20048;-69
2021/12/28 06:29:33;;;;;;;50.17;19.67;;;5.20;99.90;;;;;;5093212;28;20083;-69
2021/12/28 06:32:00;;;;;;;53.67;20.75;;;5.20;99.90;;;;;;5093082;28;20101;-69
2021/12/28 06:34:27;;;;;;;46.67;20.08;;;5.10;99.90;;;;;;5092900;28;20475;-69
2021/12/28 06:36:55;;;;;;;49.55;19.15;;;5.10;99.90;;;;;;5092962;28;20520;-69
2021/12/28 06:39:22;;;;;;;49.42;19.45;;;5.10;99.90;;;;;;5093002;28;20093;-69
2021/12/28 06:41:49;;;;;;;48.03;20.30;;;5.20;99.90;;;;;;5093026;28;20467;-69
2021/12/28 06:44:16;;;;;;;53.42;20.83;;;5.10;99.90;;;;;;5093126;28;20487;-69
2021/12/28 06:46:43;;;;;;;47.30;19.73;;;5.10;99.90;;;;;;5092585;28;20506;-69
2021/12/28 06:49:11;;;;;;;46.93;19.50;;;5.10;99.90;;;;;;5092720;28;20468;-69
2021/12/28 06:51:38;;;;;;;54.30;19.45;;;5.10;99.90;;;;;;5092958;28;20105;-69
2021/12/28 06:54:06;;;;;;;50.10;19.95;;;5.10;99.90;;;;;;5092680;28;20519;-69
2021/12/28 06:56:33;;;;;;;41.17;16.73;;;5.10;99.90;;;;;;5092861;28;20642;-69
2021/12/28 06:59:01;;;;;;;39.83;17.83;;;5.10;99.90;;;;;;5092947;28;20083;-69
2021/12/28 07:01:28;;;;;;;46.08;18.98;;;5.10;99.90;;;;;;5092354;28;20454;-69
2021/12/28 07:03:55;;;;;;;48.00;18.23;;;5.10;99.90;;;;;;5092172;28;20479;-69
2021/12/28 07:06:23;;;;;;;52.45;19.10;;;5.10;99.90;;;;;;5092110;28;20577;-69
2021/12/28 07:08:50;;;;;;;45.42;18.55;;;5.00;99.90;;;;;;5092236;28;20138;-68
2021/12/28 07:11:19;;;;;;;47.58;18.52;;;5.00;99.90;;;;;;5092271;28;20462;-69
2021/12/28 07:13:46;;;;;;;45.67;16.13;;;5.00;99.90;;;;;;5092534;28;20495;-69
2021/12/28 07:16:13;;;;;;;51.40;18.38;;;5.00;99.90;;;;;;5092386;28;20048;-69
2021/12/28 07:18:40;;;;;;;49.88;18.67;;;5.00;99.90;;;;;;5092774;28;20094;-69
2021/12/28 07:21:07;;;;;;;49.73;18.77;;;5.00;99.90;;;;;;5092290;28;20091;-69
2021/12/28 07:23:34;;;;;;;44.58;19.95;;;5.00;99.90;;;;;;5097118;28;20087;-69
2021/12/28 07:26:01;;;;;;;51.23;18.37;;;4.90;99.90;;;;;;5093390;28;20396;-69
2021/12/28 07:28:29;;;;;;;50.67;20.08;;;4.90;99.90;;;;;;5091830;28;20091;-69
2021/12/28 07:30:56;;;;;;;55.20;20.23;;;4.90;99.90;;;;;;5091737;28;20084;-70
2021/12/28 07:33:23;;;;;;;56.38;20.30;;;4.90;99.90;;;;;;5091889;28;20080;-69
2021/12/28 07:35:50;;;;;;;50.15;19.25;;;4.90;99.90;;;;;;5091760;28;20434;-69
2021/12/28 07:38:17;;;;;;;50.23;18.90;;;4.90;99.90;;;;;;5091766;28;20083;-69
2021/12/28 07:40:45;;;;;;;39.67;17.42;;;4.90;99.90;;;;;;5091525;28;20149;-69
2021/12/28 07:43:13;;;;;;;47.70;19.33;;;4.80;99.90;;;;;;5091992;28;20693;-69
2021/12/28 07:45:41;;;;;;;48.33;18.85;;;4.80;99.90;;;;;;5091271;28;20504;-69
2021/12/28 07:48:08;;;;;;;46.30;18.50;;;4.80;99.90;;;;;;5092039;28;20063;-69
2021/12/28 07:50:35;;;;;;;40.83;18.40;;;4.80;99.90;;;;;;5185070;22;20457;-66
2021/12/28 07:53:03;;;;;;;42.88;17.75;;;4.80;99.90;;;;;;5092079;28;20415;-67
2021/12/28 07:55:30;;;;;;;41.92;17.08;;;4.90;99.90;;;;;;5091261;28;20496;-67
2021/12/28 07:57:57;;;;;;;41.70;18.35;;;4.90;99.90;;;;;;5091667;28;20044;-66
2021/12/28 08:00:25;;;;;;;41.20;17.05;;;4.90;99.90;;;;;;5091043;28;20101;-65
2021/12/28 08:02:54;;;;;;;41.22;16.70;;;4.90;99.90;;;;;;5091672;28;20055;-65
2021/12/28 08:05:21;;;;;;;42.33;16.95;;;5.00;99.90;;;;;;5091193;28;20044;-66
2021/12/28 08:07:48;;;;;;;39.50;16.80;;;5.00;99.90;;;;;;5092525;28;20056;-67
2021/12/28 08:10:17;;;;;;;34.33;15.77;;;5.00;99.90;;;;;;5091976;28;20083;-66
2021/12/28 08:12:46;;;;;;;40.55;17.27;;;5.10;99.90;;;;;;5091427;28;20052;-66
2021/12/28 08:15:14;;;;;;;37.63;15.23;;;5.10;99.90;;;;;;5091046;28;20404;-66
2021/12/28 08:17:41;;;;;;;36.50;14.50;;;5.10;99.90;;;;;;5091896;28;20079;-66
2021/12/28 08:20:12;;;;;;;41.67;16.45;;;5.10;99.90;;;;;;5092088;28;20044;-65
2021/12/28 08:22:40;;;;;;;40.30;16.40;;;5.10;99.90;;;;;;5093021;28;20106;-65
2021/12/28 08:25:09;;;;;;;38.20;16.77;;;5.10;99.90;;;;;;5094377;28;20500;-65
2021/12/28 08:27:36;;;;;;;38.00;15.80;;;5.00;99.90;;;;;;5093483;28;20048;-67
2021/12/28 08:30:05;;;;;;;39.15;17.20;;;5.00;99.90;;;;;;5091865;28;20047;-65
2021/12/28 08:32:32;;;;;;;42.45;16.95;;;5.00;99.90;;;;;;5092235;28;20072;-66
2021/12/28 08:34:59;;;;;;;41.15;16.27;;;5.10;99.90;;;;;;5092806;28;20127;-67
2021/12/28 08:37:28;;;;;;;42.67;15.90;;;5.10;99.90;;;;;;5093976;28;20051;-68
2021/12/28 08:39:55;;;;;;;42.63;16.02;;;5.10;99.90;;;;;;5092490;28;20095;-68
2021/12/28 08:42:23;;;;;;;42.57;15.93;;;5.10;99.90;;;;;;5096435;28;20060;-68
2021/12/28 08:44:50;;;;;;;37.47;15.93;;;5.10;99.90;;;;;;5078574;28;20094;-66
2021/12/28 08:47:19;;;;;;;44.85;16.55;;;5.10;99.90;;;;;;5097537;28;20082;-70
2021/12/28 08:49:48;;;;;;;40.63;17.17;;;5.10;99.90;;;;;;5097947;28;20088;-68
2021/12/28 08:52:15;;;;;;;37.88;16.65;;;5.10;99.90;;;;;;5097856;28;20051;-67
2021/12/28 08:54:43;;;;;;;35.22;16.95;;;5.00;99.90;;;;;;5096486;28;20048;-67
2021/12/28 08:57:10;;;;;;;43.83;16.33;;;5.10;99.90;;;;;;5096583;28;20070;-67
2021/12/28 08:59:38;;;;;;;36.10;16.27;;;5.10;99.90;;;;;;5096973;28;20048;-67
2021/12/28 09:02:07;;;;;;;38.88;17.30;;;5.20;99.90;;;;;;5097746;28;20048;-68
2021/12/28 09:04:36;;;;;;;36.10;16.33;;;5.20;99.90;;;;;;5106689;28;20048;-69
2021/12/28 09:07:04;;;;;;;40.72;16.98;;;5.20;99.90;;;;;;5099469;28;20059;-68
2021/12/28 09:09:32;;;;;;;39.78;16.95;;;5.20;99.90;;;;;;5098063;28;20072;-67
2021/12/28 09:12:02;;;;;;;43.20;17.30;;;5.20;99.90;;;;;;5098793;28;20614;-67
2021/12/28 09:14:34;;;;;;;47.88;18.05;;;5.30;99.90;;;;;;5101064;28;20107;-67
2021/12/28 09:17:03;;;;;;;46.15;17.67;;;5.30;99.90;;;;;;5098708;28;20121;-68
2021/12/28 09:19:31;;;;;;;39.50;14.77;;;5.30;99.90;;;;;;5100864;28;20059;-68
2021/12/28 09:22:04;;;;;;;37.85;15.48;;;5.40;99.90;;;;;;5101395;28;20464;-68
2021/12/28 09:24:35;;;;;;;33.47;15.13;;;5.50;99.90;;;;;;5085828;28;20105;-67
2021/12/28 09:27:03;;;;;;;39.53;15.68;;;5.40;99.90;;;;;;5096085;28;20491;-67
2021/12/28 09:29:31;;;;;;;37.20;14.27;;;5.50;99.90;;;;;;5096205;28;20051;-69
2021/12/28 09:32:00;;;;;;;34.22;15.52;;;5.60;99.90;;;;;;5097017;28;20052;-68
2021/12/28 09:34:28;;;;;;;29.50;14.02;;;5.60;99.90;;;;;;5098497;28;20496;-67
2021/12/28 09:36:56;;;;;;;34.28;14.10;;;5.70;99.90;;;;;;5096205;28;20056;-67
2021/12/28 09:39:26;;;;;;;30.42;13.35;;;5.70;99.90;;;;;;5098250;28;20052;-67
2021/12/28 09:41:55;;;;;;;30.55;14.02;;;5.70;99.90;;;;;;5096470;28;20052;-68
2021/12/28 09:44:24;;;;;;;31.25;14.32;;;5.70;99.90;;;;;;5095787;28;20059;-68
2021/12/28 09:46:51;;;;;;;29.65;13.50;;;5.70;99.90;;;;;;5094992;28;20055;-68
2021/12/28 09:49:18;;;;;;;36.65;15.18;;;5.70;99.90;;;;;;5095823;28;20044;-70
2021/12/28 09:51:45;;;;;;;35.47;13.95;;;5.80;99.90;;;;;;5095244;28;20275;-67
2021/12/28 09:54:12;;;;;;;29.75;13.57;;;5.80;99.90;;;;;;5094991;28;20112;-67
2021/12/28 09:56:40;;;;;;;26.73;12.57;;;5.80;99.90;;;;;;5095935;28;20044;-67
2021/12/28 09:59:07;;;;;;;26.73;12.32;;;5.80;99.90;;;;;;5095883;28;20495;-67
2021/12/28 10:01:35;;;;;;;30.30;12.77;;;5.80;99.90;;;;;;5095820;28;20044;-68
2021/12/28 10:04:02;;;;;;;27.88;13.30;;;5.80;99.90;;;;;;5096016;28;20086;-68
2021/12/28 10:06:31;;;;;;;34.40;14.05;;;5.90;99.90;;;;;;5096049;28;20105;-68
2021/12/28 10:09:07;;;;;;;26.98;11.68;;;5.90;99.90;;;;;;5096553;28;20052;-67
2021/12/28 10:11:36;;;;;;;25.95;11.57;;;6.00;99.90;;;;;;5095770;28;20107;-67
2021/12/28 10:14:18;;;;;;;30.25;11.40;;;6.00;99.90;;;;;;5096211;28;20083;-69
2021/12/28 10:16:53;;;;;;;22.83;9.95;;;5.90;99.90;;;;;;5095650;28;20064;-67
2021/12/28 10:19:37;;;;;;;23.35;9.57;;;5.90;99.90;;;;;;5099766;28;20048;-67
2021/12/28 10:22:23;;;;;;;20.10;9.60;;;6.00;99.90;;;;;;5100049;28;20127;-67
2021/12/28 10:24:51;;;;;;;20.92;8.68;;;6.10;99.90;;;;;;5098321;28;20048;-68
2021/12/28 10:27:21;;;;;;;19.98;8.88;;;6.10;99.90;;;;;;5096459;28;20044;-68
2021/12/28 10:29:48;;;;;;;19.75;8.70;;;6.10;99.90;;;;;;5097899;28;20054;-68
2021/12/28 10:32:23;;;;;;;18.02;8.93;;;6.10;99.90;;;;;;5095962;28;20515;-67
2021/12/28 10:34:51;;;;;;;15.52;7.00;;;6.10;99.90;;;;;;5094273;28;20048;-67
2021/12/28 10:37:21;;;;;;;13.98;6.93;;;6.20;99.90;;;;;;5100016;28;20496;-67
2021/12/28 10:39:51;;;;;;;15.18;7.07;;;6.20;99.90;;;;;;5101224;28;20044;-67
2021/12/28 10:42:45;;;;;;;16.95;7.95;;;6.20;99.90;;;;;;5098330;28;20454;-69
2021/12/28 10:45:14;;;;;;;15.73;7.20;;;6.20;99.90;;;;;;5093442;28;20488;-68
2021/12/28 10:47:42;;;;;;;14.27;6.63;;;6.30;99.90;;;;;;5093882;28;20090;-68
2021/12/28 10:50:29;;;;;;;15.40;7.15;;;6.30;99.90;;;;;;5093534;28;20097;-68
2021/12/28 10:53:05;;;;;;;14.23;7.50;;;6.30;99.90;;;;;;5094134;28;20096;-68
2021/12/28 10:55:33;;;;;;;13.07;6.40;;;6.30;99.90;;;;;;5093539;28;20059;-68
2021/12/28 10:58:02;;;;;;;15.60;6.63;;;6.30;99.90;;;;;;5094438;28;20106;-69
2021/12/28 11:00:31;;;;;;;16.70;6.45;;;6.40;99.90;;;;;;5093631;28;20084;-67
2021/12/28 11:03:19;;;;;;;14.00;6.32;;;6.30;99.90;;;;;;5092660;28;20098;-68
2021/12/28 11:05:49;;;;;;;11.38;5.82;;;6.40;99.90;;;;;;5105053;28;20055;-66
2021/12/28 11:08:16;;;;;;;14.63;5.88;;;6.50;99.90;;;;;;5107355;28;20056;-68
2021/12/28 11:10:46;;;;;;;11.40;5.97;;;6.50;99.90;;;;;;5100894;28;20083;-68
2021/12/28 11:13:14;;;;;;;11.77;5.57;;;6.50;99.90;;;;;;5094807;28;20058;-68
2021/12/28 11:15:45;;;;;;;11.27;5.32;;;6.60;99.90;;;;;;5093538;28;20052;-67
2021/12/28 11:18:28;;;;;;;15.38;6.13;;;6.50;99.90;;;;;;5093306;28;20429;-68
2021/12/28 11:20:55;;;;;;;12.20;5.22;;;6.60;99.90;;;;;;5093502;28;20060;-68
2021/12/28 11:23:24;;;;;;;11.98;5.28;;;6.60;99.90;;;;;;5093122;28;20113;-68
2021/12/28 11:26:06;;;;;;;13.27;5.55;;;6.60;99.90;;;;;;5092870;28;20048;-68
2021/12/28 11:28:34;;;;;;;9.70;4.95;;;6.70;99.90;;;;;;5093343;28;20059;-66
2021/12/28 11:31:14;;;;;;;11.95;5.43;;;6.70;99.90;;;;;;5093324;28;20098;-66
2021/12/28 11:33:59;;;;;;;14.40;6.00;;;6.70;99.90;;;;;;5093115;28;20104;-67
2021/12/28 11:36:31;;;;;;;11.27;4.72;;;6.80;99.90;;;;;;5092249;28;20197;-67
2021/12/28 11:39:01;;;;;;;11.82;5.07;;;6.80;99.90;;;;;;5091913;28;20559;-68
2021/12/28 11:41:28;;;;;;;13.90;5.03;;;6.80;99.90;;;;;;5091043;28;20080;-68
2021/12/28 11:43:57;;;;;;;10.70;4.95;;;6.70;99.90;;;;;;5075491;28;20044;-66
2021/12/28 11:46:25;;;;;;;15.18;4.97;;;6.70;99.90;;;;;;5092344;28;20052;-67
2021/12/28 11:48:53;;;;;;;12.82;5.43;;;6.80;99.90;;;;;;5092392;28;20052;-66
2021/12/28 11:51:22;;;;;;;9.38;4.75;;;6.80;99.90;;;;;;5091825;28;20052;-68
2021/12/28 11:53:51;;;;;;;11.05;5.05;;;6.80;99.90;;;;;;5055819;28;20052;-67
2021/12/28 11:56:23;;;;;;;9.10;4.47;;;6.80;99.90;;;;;;5072235;28;20416;-68
2021/12/28 11:59:03;;;;;;;11.25;5.07;;;6.90;99.90;;;;;;5071885;28;20397;-69
2021/12/28 12:02:01;;;;;;;11.98;4.47;;;6.90;99.90;;;;;;5072007;28;20102;-68
2021/12/28 12:04:57;;;;;;;9.18;4.82;;;6.90;99.90;;;;;;5072572;28;20056;-69
2021/12/28 12:07:39;;;;;;;10.00;4.35;;;6.90;99.90;;;;;;5072260;28;20056;-69
2021/12/28 12:10:37;;;;;;;11.05;4.28;;;7.00;99.90;;;;;;5071244;28;20435;-68
2021/12/28 12:13:15;;;;;;;;;;;7.00;99.90;;;;;;5030161;28;20137;-68
2021/12/28 12:15:45;;;;;;;10.70;4.05;;;7.00;99.90;;;;;;5064927;28;19981;-67
2021/12/28 12:18:18;;;;;;;9.30;3.80;;;7.00;99.90;;;;;;5071836;28;20082;-67
2021/12/28 12:21:00;;;;;;;8.25;4.03;;;7.10;99.90;;;;;;5072341;28;20094;-67
2021/12/28 12:23:30;;;;;;;9.85;4.03;;;7.10;99.90;;;;;;5072290;28;20052;-68
2021/12/28 12:26:04;;;;;;;8.45;3.97;;;7.10;99.90;;;;;;5071236;28;20428;-67
2021/12/28 12:28:46;;;;;;;10.75;4.53;;;7.20;99.90;;;;;;5071771;28;20492;-68
2021/12/28 12:31:25;;;;;;;11.02;5.13;;;7.20;99.90;;;;;;5071846;28;20178;-68
2021/12/28 12:33:52;;;;;;;11.23;5.13;;;7.20;99.90;;;;;;5071888;28;20086;-69
2021/12/28 12:36:28;;;;;;;11.52;4.88;;;7.20;99.90;;;;;;5071447;28;20080;-69
2021/12/28 12:38:55;;;;;;;7.97;4.10;;;7.20;99.90;;;;;;5071848;28;20106;-68
2021/12/28 12:41:38;;;;;;;8.52;4.82;;;7.20;99.90;;;;;;5071415;28;20520;-68
2021/12/28 12:44:11;;;;;;;9.18;3.97;;;7.30;99.90;;;;;;5071632;28;20045;-67
2021/12/28 12:46:41;;;;;;;9.55;4.25;;;7.30;99.90;;;;;;5071408;28;20053;-67
2021/12/28 12:49:14;;;;;;;8.32;4.57;;;7.30;99.90;;;;;;5072271;28;20056;-67
2021/12/28 12:51:49;;;;;;;8.77;4.00;;;7.40;99.90;;;;;;5071313;28;20500;-67